Time;durP1;ratioP1;P1;durP2;ratioP2;P2;SDS_P1;SDS_P2;PMS_P1;PMS_P2;Temp;Humidity;BMP_temperature;BMP_pressure;BME280_temperature;BME280_humidity;BME280_pressure;Samples;Min_cycle;Max_cycle;Signal;HPM_P1;HPM_P2
2021/04/25 00:00:20;;;;;;;15.07;10.68;;;;;;;8.44;50.05;95584.91;4983536;28;20058;-68
2021/04/25 00:02:45;;;;;;;16.65;10.80;;;;;;;8.47;49.94;95589.66;4988783;28;20082;-68
2021/04/25 00:05:13;;;;;;;16.45;10.48;;;;;;;8.49;49.27;95584.06;4994437;28;20069;-69
2021/04/25 00:07:39;;;;;;;15.27;9.15;;;;;;;8.42;49.80;95573.00;5008941;28;20188;-68
2021/04/25 00:10:06;;;;;;;12.88;8.90;;;;;;;8.38;50.70;95572.75;5011833;28;20110;-69
2021/04/25 00:12:31;;;;;;;10.23;9.10;;;;;;;8.31;50.94;95572.28;5011479;28;20138;-68
2021/04/25 00:14:57;;;;;;;13.18;8.68;;;;;;;8.25;51.17;95560.16;5011665;28;20073;-68
2021/04/25 00:17:22;;;;;;;9.77;8.77;;;;;;;8.22;51.82;95569.44;5013581;28;20483;-68
2021/04/25 00:19:48;;;;;;;12.35;8.52;;;;;;;8.08;52.70;95563.19;4992288;28;20504;-68
2021/04/25 00:22:13;;;;;;;11.07;8.90;;;;;;;7.99;52.85;95549.75;4990571;28;20042;-68
2021/04/25 00:24:39;;;;;;;15.57;8.95;;;;;;;8.02;52.95;95553.69;4974417;28;20392;-68
2021/04/25 00:27:04;;;;;;;11.90;9.30;;;;;;;8.02;52.56;95557.13;4991651;28;20085;-69
2021/04/25 00:29:30;;;;;;;11.68;8.82;;;;;;;7.96;53.21;95554.81;4991830;28;20409;-66
2021/04/25 00:31:55;;;;;;;15.75;9.00;;;;;;;7.90;54.10;95547.97;4991979;28;20479;-67
2021/04/25 00:34:20;;;;;;;15.38;9.30;;;;;;;7.84;54.02;95546.44;5007282;28;20034;-68
2021/04/25 00:36:47;;;;;;;17.70;8.55;;;;;;;7.80;54.29;95552.25;5000008;28;20407;-68
2021/04/25 00:39:12;;;;;;;13.18;8.00;;;;;;;7.70;54.02;95539.09;4990263;28;20038;-68
2021/04/25 00:41:38;;;;;;;13.57;9.00;;;;;;;7.68;54.72;95537.81;4991301;28;20546;-68
2021/04/25 00:44:03;;;;;;;13.13;8.18;;;;;;;7.64;54.25;95534.91;4993535;28;20030;-69
2021/04/25 00:46:29;;;;;;;12.93;9.30;;;;;;;7.54;55.55;95538.41;5008266;28;20496;-67
2021/04/25 00:48:54;;;;;;;14.20;10.20;;;;;;;7.54;54.16;95538.41;5010740;28;20101;-68
2021/04/25 00:51:23;;;;;;;14.23;10.00;;;;;;;7.27;55.22;95538.84;5003221;28;20085;-68
2021/04/25 00:53:49;;;;;;;20.58;10.10;;;;;;;7.18;56.39;95548.41;4991212;28;20042;-67
2021/04/25 00:56:15;;;;;;;18.20;9.88;;;;;;;7.29;55.88;95563.16;4993245;28;20035;-68
2021/04/25 00:58:41;;;;;;;12.20;8.60;;;;;;;7.27;56.01;95552.06;4991026;28;20046;-68
2021/04/25 01:01:07;;;;;;;11.48;8.02;;;;;;;7.30;55.33;95556.00;4991042;28;20378;-69
2021/04/25 01:03:32;;;;;;;13.82;9.98;;;;;;;7.15;54.48;95546.28;4991037;28;20093;-68
2021/04/25 01:05:58;;;;;;;11.60;8.85;;;;;;;7.35;53.93;95558.63;4991176;28;20029;-68
2021/04/25 01:08:23;;;;;;;12.57;9.25;;;;;;;7.29;53.45;95549.94;4992794;28;20034;-67
2021/04/25 01:10:48;;;;;;;12.68;9.30;;;;;;;7.42;53.49;95548.56;4990470;28;20073;-69
2021/04/25 01:13:14;;;;;;;11.43;9.52;;;;;;;7.41;53.29;95549.59;4990672;28;20092;-68
2021/04/25 01:15:39;;;;;;;14.02;8.90;;;;;;;7.38;53.21;95562.59;4990785;28;20038;-68
2021/04/25 01:18:05;;;;;;;11.60;8.38;;;;;;;7.29;52.93;95535.91;4994793;28;20041;-67
2021/04/25 01:20:30;;;;;;;15.70;9.63;;;;;;;7.58;52.51;95561.69;5010271;28;20568;-69
2021/04/25 01:22:56;;;;;;;15.10;9.35;;;;;;;7.53;51.55;95541.34;5012015;28;20133;-68
2021/04/25 01:25:23;;;;;;;13.63;9.30;;;;;;;7.63;51.31;95564.31;4994667;28;20050;-68
2021/04/25 01:27:50;;;;;;;11.13;8.30;;;;;;;7.63;52.00;95559.81;4990724;28;20443;-68
2021/04/25 01:30:20;;;;;;;14.55;8.23;;;;;;;7.55;53.45;95557.72;4973387;28;20035;-69
2021/04/25 01:32:46;;;;;;;12.60;8.60;;;;;;;7.49;53.17;95572.06;4990448;28;20374;-67
2021/04/25 01:35:15;;;;;;;12.77;7.45;;;;;;;7.37;53.94;95576.88;4992430;28;20052;-68
2021/04/25 01:37:41;;;;;;;14.88;8.75;;;;;;;7.29;53.68;95546.50;4989033;28;20075;-67
2021/04/25 01:40:08;;;;;;;11.68;8.20;;;;;;;7.43;53.21;95568.66;4990456;28;20176;-67
2021/04/25 01:42:34;;;;;;;15.38;8.85;;;;;;;7.23;53.65;95563.47;4999715;28;20064;-68
2021/04/25 01:44:59;;;;;;;12.88;8.55;;;;;;;7.19;54.22;95568.50;5009995;28;20112;-67
2021/04/25 01:47:25;;;;;;;14.27;8.70;;;;;;;7.21;54.22;95573.50;5009818;28;20415;-70
2021/04/25 01:49:50;;;;;;;10.77;8.43;;;;;;;7.12;53.75;95581.22;4992261;28;20601;-68
2021/04/25 01:52:15;;;;;;;15.45;8.68;;;;;;;7.04;54.94;95587.88;4990005;28;20143;-68
2021/04/25 01:54:41;;;;;;;11.40;8.23;;;;;;;6.92;54.43;95579.44;4990219;28;20038;-68
2021/04/25 01:57:06;;;;;;;9.82;8.52;;;;;;;6.88;54.41;95551.16;4990007;28;20125;-69
2021/04/25 01:59:33;;;;;;;14.30;9.40;;;;;;;7.02;54.14;95570.69;4988841;28;20033;-69
2021/04/25 02:01:59;;;;;;;12.05;9.00;;;;;;;6.99;54.22;95572.00;4991896;28;20030;-68
2021/04/25 02:04:25;;;;;;;14.27;9.15;;;;;;;7.01;54.59;95564.63;4989956;28;20043;-68
2021/04/25 02:06:50;;;;;;;12.73;9.50;;;;;;;6.91;54.74;95559.38;4984073;28;20469;-69
2021/04/25 02:09:16;;;;;;;12.73;8.93;;;;;;;6.93;54.30;95561.72;5009716;28;20049;-68
2021/04/25 02:11:41;;;;;;;11.48;9.27;;;;;;;7.08;53.95;95564.31;5007091;28;20101;-68
2021/04/25 02:14:08;;;;;;;12.38;8.60;;;;;;;7.04;54.35;95556.13;4992054;28;20472;-67
2021/04/25 02:16:34;;;;;;;9.90;8.80;;;;;;;7.11;53.82;95563.75;4988669;28;20081;-68
2021/04/25 02:19:00;;;;;;;15.10;9.52;;;;;;;7.00;54.26;95565.66;4989373;28;20455;-68
2021/04/25 02:21:25;;;;;;;14.90;9.38;;;;;;;7.07;54.14;95567.25;4988406;28;20619;-67
2021/04/25 02:23:51;;;;;;;13.82;8.52;;;;;;;7.00;54.57;95573.59;4989025;28;20039;-67
2021/04/25 02:26:17;;;;;;;13.68;9.88;;;;;;;6.72;56.46;95569.72;4991598;28;20445;-67
2021/04/25 02:28:42;;;;;;;13.35;8.95;;;;;;;6.66;55.80;95570.81;4989460;28;20051;-68
2021/04/25 02:31:07;;;;;;;14.27;9.30;;;;;;;6.77;55.99;95571.56;4989513;28;20396;-69
2021/04/25 02:33:33;;;;;;;13.25;8.85;;;;;;;6.78;55.78;95573.94;4989398;28;20087;-69
2021/04/25 02:35:58;;;;;;;12.18;8.18;;;;;;;6.74;56.25;95559.66;4992818;28;20033;-67
2021/04/25 02:38:23;;;;;;;9.57;7.50;;;;;;;6.78;56.09;95575.78;5010774;28;20148;-68
2021/04/25 02:40:49;;;;;;;9.07;7.50;;;;;;;6.81;56.72;95579.72;5008787;28;20487;-67
2021/04/25 02:43:14;;;;;;;14.70;7.65;;;;;;;6.99;56.04;95560.63;4994001;28;20066;-67
2021/04/25 02:45:40;;;;;;;12.82;8.15;;;;;;;6.98;55.83;95577.56;4989264;28;20074;-68
2021/04/25 02:48:07;;;;;;;10.02;8.27;;;;;;;6.84;55.96;95565.97;4989207;28;20030;-68
2021/04/25 02:50:36;;;;;;;11.57;8.48;;;;;;;6.90;55.79;95580.75;4989138;28;20023;-67
2021/04/25 02:53:01;;;;;;;12.65;9.02;;;;;;;6.91;55.70;95566.47;4989750;28;20037;-69
2021/04/25 02:55:27;;;;;;;13.40;9.05;;;;;;;6.77;56.68;95575.00;4989280;28;20129;-67
2021/04/25 02:57:52;;;;;;;10.30;8.27;;;;;;;6.63;56.82;95560.75;4987578;28;20038;-68
2021/04/25 03:00:21;;;;;;;10.95;8.70;;;;;;;6.56;57.94;95570.03;4995105;28;20037;-68
2021/04/25 03:02:46;;;;;;;15.88;8.63;;;;;;;6.70;56.84;95550.69;5008614;28;20096;-68
2021/04/25 03:05:13;;;;;;;13.63;8.70;;;;;;;6.68;57.66;95570.53;5010580;28;20021;-67
2021/04/25 03:07:38;;;;;;;11.13;8.27;;;;;;;6.77;57.47;95575.00;4988982;28;20062;-67
2021/04/25 03:10:06;;;;;;;13.20;9.07;;;;;;;6.72;57.73;95576.88;4989144;28;20370;-68
2021/04/25 03:12:32;;;;;;;15.88;8.70;;;;;;;6.72;57.37;95574.22;4988895;28;20034;-67
2021/04/25 03:14:57;;;;;;;15.73;9.95;;;;;;;6.69;58.23;95570.25;4989050;28;20678;-67
2021/04/25 03:17:23;;;;;;;11.98;8.80;;;;;;;6.85;57.65;95571.00;4990717;28;20042;-68
2021/04/25 03:19:49;;;;;;;10.13;8.75;;;;;;;6.73;57.91;95575.78;4988693;28;20062;-68
2021/04/25 03:22:14;;;;;;;11.85;9.05;;;;;;;6.21;59.33;95553.94;4988735;28;20172;-68
2021/04/25 03:24:39;;;;;;;11.77;8.70;;;;;;;6.59;58.66;95580.84;4981566;28;20492;-68
2021/04/25 03:27:05;;;;;;;12.40;9.45;;;;;;;6.68;57.80;95578.44;5008401;28;20365;-67
2021/04/25 03:29:31;;;;;;;12.70;8.73;;;;;;;6.77;57.40;95572.34;5007565;28;20095;-67
2021/04/25 03:31:56;;;;;;;14.18;8.30;;;;;;;6.64;58.54;95572.91;4990567;28;20030;-68
2021/04/25 03:34:22;;;;;;;9.48;7.85;;;;;;;6.87;56.97;95574.19;4989382;28;20073;-67
2021/04/25 03:36:47;;;;;;;12.88;8.27;;;;;;;6.90;56.95;95564.91;5002506;28;20038;-68
2021/04/25 03:39:13;;;;;;;13.38;8.65;;;;;;;6.85;57.66;95556.97;5005765;28;20112;-68
2021/04/25 03:41:39;;;;;;;13.25;8.13;;;;;;;6.95;57.34;95563.03;4991148;28;20565;-67
2021/04/25 03:44:04;;;;;;;9.73;8.68;;;;;;;6.94;57.33;95569.38;4993231;28;20037;-67
2021/04/25 03:46:30;;;;;;;12.23;8.50;;;;;;;6.83;57.34;95562.53;4991127;28;20523;-68
2021/04/25 03:48:56;;;;;;;10.45;8.00;;;;;;;6.76;57.56;95562.84;4983740;28;20038;-67
2021/04/25 03:51:22;;;;;;;14.57;9.27;;;;;;;6.66;57.69;95548.88;4992228;28;20512;-67
2021/04/25 03:53:47;;;;;;;11.02;8.68;;;;;;;6.69;57.44;95554.38;4992562;28;20133;-68
2021/04/25 03:56:13;;;;;;;12.88;8.73;;;;;;;6.66;57.48;95564.72;4994288;28;20026;-68
2021/04/25 03:58:38;;;;;;;13.18;8.80;;;;;;;6.47;58.00;95559.19;4992229;28;20484;-67
2021/04/25 04:01:04;;;;;;;15.90;8.90;;;;;;;6.46;58.13;95560.25;4992161;28;20512;-68
2021/04/25 04:03:29;;;;;;;10.93;9.23;;;;;;;6.11;58.46;95556.59;4991949;28;20551;-67
2021/04/25 04:05:54;;;;;;;14.32;8.45;;;;;;;6.23;58.61;95565.03;4992246;28;20034;-68
2021/04/25 04:08:20;;;;;;;12.35;8.82;;;;;;;6.24;58.33;95573.75;4993981;28;20105;-68
2021/04/25 04:10:45;;;;;;;13.95;7.90;;;;;;;6.13;58.79;95570.31;4993790;28;20239;-68
2021/04/25 04:13:11;;;;;;;16.33;8.40;;;;;;;6.16;58.80;95569.81;4995828;28;20567;-68
2021/04/25 04:15:37;;;;;;;12.85;8.32;;;;;;;6.01;59.06;95558.44;4992116;28;20038;-68
2021/04/25 04:18:03;;;;;;;11.32;8.20;;;;;;;6.08;59.21;95564.25;4991852;28;20092;-69
2021/04/25 04:20:28;;;;;;;12.13;8.48;;;;;;;6.17;58.95;95568.75;4991710;28;20102;-68
2021/04/25 04:22:54;;;;;;;12.05;8.73;;;;;;;6.16;58.83;95569.81;4993806;28;20026;-67
2021/04/25 04:25:20;;;;;;;13.57;9.07;;;;;;;6.29;58.37;95572.94;4991930;28;20050;-68
2021/04/25 04:27:45;;;;;;;10.43;8.48;;;;;;;6.26;58.90;95571.66;4991775;28;20316;-68
2021/04/25 04:30:11;;;;;;;11.18;7.47;;;;;;;6.14;58.75;95571.13;4992051;28;20072;-68
2021/04/25 04:32:36;;;;;;;10.77;8.38;;;;;;;6.12;58.87;95565.31;4991133;28;20547;-67
2021/04/25 04:35:03;;;;;;;13.25;8.68;;;;;;;5.77;60.11;95582.69;4976363;28;20680;-68
2021/04/25 04:37:28;;;;;;;13.95;8.45;;;;;;;5.50;61.57;95577.63;4991513;28;20038;-68
2021/04/25 04:39:53;;;;;;;15.68;9.15;;;;;;;5.48;61.75;95593.72;4991657;28;20507;-68
2021/04/25 04:42:19;;;;;;;14.85;8.88;;;;;;;5.41;62.35;95600.28;4991223;28;20449;-68
2021/04/25 04:44:44;;;;;;;11.93;8.77;;;;;;;5.29;62.55;95605.00;4991613;28;20038;-68
2021/04/25 04:47:10;;;;;;;13.45;9.30;;;;;;;5.59;61.93;95614.88;4993146;28;20095;-68
2021/04/25 04:49:35;;;;;;;11.85;8.93;;;;;;;5.87;61.54;95608.31;4991316;28;20130;-68
2021/04/25 04:52:01;;;;;;;14.15;9.82;;;;;;;6.05;60.84;95610.47;4986682;28;20053;-68
2021/04/25 04:54:27;;;;;;;14.63;8.88;;;;;;;6.14;60.71;95579.84;5002389;28;20049;-68
2021/04/25 04:56:52;;;;;;;14.27;9.75;;;;;;;6.09;61.49;95590.41;4991133;28;20031;-68
2021/04/25 04:59:18;;;;;;;11.57;9.07;;;;;;;6.38;60.65;95582.72;4992898;28;20030;-69
2021/04/25 05:01:43;;;;;;;13.68;9.85;;;;;;;6.57;59.89;95593.53;4988951;28;20046;-67
2021/04/25 05:04:09;;;;;;;15.40;10.75;;;;;;;6.66;60.12;95607.81;4973620;28;20050;-68
2021/04/25 05:06:34;;;;;;;12.57;8.82;;;;;;;6.18;61.74;95602.00;4999439;28;20050;-69
2021/04/25 05:08:59;;;;;;;11.85;9.60;;;;;;;6.66;60.72;95607.03;5005963;28;20492;-68
2021/04/25 05:11:25;;;;;;;14.88;9.75;;;;;;;7.00;59.20;95610.63;4991004;28;20022;-68
2021/04/25 05:13:50;;;;;;;15.63;9.85;;;;;;;6.29;60.83;95607.28;5012547;28;20030;-68
2021/04/25 05:16:15;;;;;;;17.52;10.25;;;;;;;6.44;61.36;95618.66;4995298;28;20038;-67
2021/04/25 05:18:42;;;;;;;12.88;10.23;;;;;;;6.44;61.23;95616.00;4999517;28;20721;-69
2021/04/25 05:21:07;;;;;;;12.00;9.65;;;;;;;6.76;60.43;95613.06;5010251;28;20034;-68
2021/04/25 05:23:33;;;;;;;13.95;10.60;;;;;;;7.03;59.62;95625.16;5007596;28;20100;-68
2021/04/25 05:25:58;;;;;;;13.88;9.77;;;;;;;6.45;61.04;95627.41;4992497;28;20051;-69
2021/04/25 05:28:24;;;;;;;14.48;10.25;;;;;;;6.57;60.91;95640.31;4988967;28;20046;-68
2021/04/25 05:30:49;;;;;;;14.60;10.65;;;;;;;6.70;60.52;95611.47;5021756;23;20041;-67
2021/04/25 05:33:15;;;;;;;16.25;10.98;;;;;;;6.84;60.46;95638.16;5036252;28;20130;-66
2021/04/25 05:35:40;;;;;;;16.42;10.88;;;;;;;6.85;60.48;95644.25;5065216;28;20051;-66
2021/04/25 05:38:05;;;;;;;18.85;11.30;;;;;;;6.85;60.91;95649.53;5051645;28;20125;-66
2021/04/25 05:40:31;;;;;;;15.35;10.80;;;;;;;6.40;62.19;95635.31;5048376;28;20517;-66
2021/04/25 05:42:56;;;;;;;21.15;10.90;;;;;;;6.99;60.90;95650.56;5049470;28;20056;-65
2021/04/25 05:45:22;;;;;;;15.52;10.52;;;;;;;6.93;60.42;95644.50;5049667;28;20120;-66
2021/04/25 05:47:53;;;;;;;16.73;11.35;;;;;;;6.69;61.22;95646.13;5049383;28;20048;-67
2021/04/25 05:50:19;;;;;;;16.98;11.50;;;;;;;6.62;62.49;95653.53;5051484;28;20100;-66
2021/04/25 05:52:45;;;;;;;13.45;11.23;;;;;;;6.87;61.46;95650.88;5049416;28;20560;-66
2021/04/25 05:55:11;;;;;;;15.75;12.07;;;;;;;6.99;60.98;95664.56;5049519;28;20092;-67
2021/04/25 05:57:37;;;;;;;15.70;11.93;;;;;;;7.52;60.06;95658.84;5048885;28;20045;-66
2021/04/25 06:00:05;;;;;;;15.85;12.20;;;;;;;6.88;61.52;95649.00;5049266;28;20033;-66
2021/04/25 06:02:30;;;;;;;17.23;13.25;;;;;;;7.41;60.48;95652.03;5049029;28;20032;-66
2021/04/25 06:04:55;;;;;;;17.60;12.90;;;;;;;7.65;59.99;95650.34;5051290;28;20025;-66
2021/04/25 06:07:21;;;;;;;16.80;14.32;;;;;;;7.07;61.74;95665.91;5049204;28;20116;-68
2021/04/25 06:09:46;;;;;;;18.33;13.40;;;;;;;7.67;59.96;95655.34;5049285;28;20487;-67
2021/04/25 06:12:12;;;;;;;17.67;14.30;;;;;;;7.05;61.28;95630.97;5047643;28;20037;-67
2021/04/25 06:14:38;;;;;;;19.67;14.40;;;;;;;7.74;60.14;95656.66;5064499;28;20451;-67
2021/04/25 06:17:03;;;;;;;15.60;13.23;;;;;;;7.37;60.83;95669.50;5049416;28;20091;-67
2021/04/25 06:19:29;;;;;;;20.70;13.80;;;;;;;7.43;60.58;95655.19;5064259;28;20587;-66
2021/04/25 06:21:54;;;;;;;20.92;14.23;;;;;;;7.16;62.11;95666.91;5048744;28;20037;-66
2021/04/25 06:24:19;;;;;;;19.38;13.95;;;;;;;7.45;60.47;95667.09;5064307;28;20040;-66
2021/04/25 06:26:45;;;;;;;23.27;15.63;;;;;;;7.37;60.88;95667.66;5048776;28;20402;-67
2021/04/25 06:29:10;;;;;;;19.58;15.68;;;;;;;7.61;60.64;95657.22;5050882;28;20442;-68
2021/04/25 06:31:35;;;;;;;17.05;15.10;;;;;;;7.74;59.90;95663.81;5048520;28;20176;-66
2021/04/25 06:34:02;;;;;;;17.02;14.40;;;;;;;7.97;59.15;95641.94;5048826;28;20079;-67
2021/04/25 06:36:27;;;;;;;17.52;15.70;;;;;;;7.82;59.87;95674.59;5048885;28;20025;-66
2021/04/25 06:38:53;;;;;;;20.45;15.63;;;;;;;7.72;60.84;95665.91;5048604;28;20044;-66
2021/04/25 06:41:18;;;;;;;23.70;15.50;;;;;;;7.82;59.99;95676.47;5050294;28;20032;-67
2021/04/25 06:43:43;;;;;;;15.77;14.00;;;;;;;7.84;59.80;95668.25;5048957;28;20029;-67
2021/04/25 06:46:09;;;;;;;19.00;15.75;;;;;;;7.82;60.08;95676.47;5048647;28;20099;-67
2021/04/25 06:48:34;;;;;;;17.80;14.23;;;;;;;7.94;60.54;95679.59;5048474;28;20048;-67
2021/04/25 06:51:00;;;;;;;24.95;15.38;;;;;;;8.43;58.30;95680.63;5047215;28;20517;-67
2021/04/25 06:53:25;;;;;;;19.67;15.57;;;;;;;8.11;58.80;95686.38;5048425;28;20525;-66
2021/04/25 06:55:50;;;;;;;20.80;15.02;;;;;;;8.02;59.08;95662.31;5050435;28;20049;-66
2021/04/25 06:58:16;;;;;;;17.25;15.27;;;;;;;8.01;59.83;95679.28;5063702;28;20523;-67
2021/04/25 07:00:41;;;;;;;23.42;16.52;;;;;;;8.31;58.26;95671.13;5048179;28;20135;-67
2021/04/25 07:03:06;;;;;;;18.17;15.88;;;;;;;8.69;57.25;95676.69;5048363;28;20387;-67
2021/04/25 07:05:32;;;;;;;17.55;15.73;;;;;;;8.79;56.50;95683.78;5048429;28;20468;-66
2021/04/25 07:07:57;;;;;;;17.52;15.70;;;;;;;8.30;57.64;95695.28;5050360;28;20100;-63
2021/04/25 07:10:24;;;;;;;21.75;16.15;;;;;;;8.32;58.23;95693.91;5047721;28;20128;-65
2021/04/25 07:12:49;;;;;;;24.40;16.13;;;;;;;8.10;58.44;95682.16;5048639;28;20040;-69
2021/04/25 07:15:15;;;;;;;17.48;15.40;;;;;;;8.44;58.33;95693.59;5048949;28;20547;-66
2021/04/25 07:17:40;;;;;;;17.80;16.00;;;;;;;8.75;57.52;95702.13;5048478;28;20017;-65
2021/04/25 07:20:08;;;;;;;19.90;16.48;;;;;;;8.87;57.21;95693.00;5048774;28;20099;-65
2021/04/25 07:22:34;;;;;;;19.10;15.38;;;;;;;9.20;56.23;95700.09;5048104;28;20049;-63
2021/04/25 07:24:59;;;;;;;19.90;16.65;;;;;;;9.48;54.94;95689.75;5048171;28;20543;-64
2021/04/25 07:27:25;;;;;;;17.98;14.98;;;;;;;9.61;54.42;95695.13;5047898;28;20435;-74
2021/04/25 07:29:50;;;;;;;23.48;15.73;;;;;;;8.99;56.08;95696.84;5063460;28;20123;-74
2021/04/25 07:32:16;;;;;;;22.42;15.77;;;;;;;8.96;55.88;95697.44;5049954;28;20459;-71
2021/04/25 07:34:41;;;;;;;18.90;15.35;;;;;;;9.23;55.41;95682.84;5048266;28;20049;-69
2021/04/25 07:37:08;;;;;;;21.60;16.65;;;;;;;8.76;56.54;95669.22;5063530;28;20394;-67
2021/04/25 07:39:36;;;;;;;20.58;15.85;;;;;;;9.46;54.96;95697.19;5047655;28;20033;-70
2021/04/25 07:42:03;;;;;;;33.65;14.98;;;;;;;9.23;54.83;95701.41;5049106;28;20041;-67
2021/04/25 07:44:29;;;;;;;17.30;15.45;;;;;;;9.42;53.08;95635.91;5049305;28;20037;-77
2021/04/25 07:46:55;;;;;;;18.52;14.23;;;;;;;9.13;53.72;95670.47;5051221;28;20466;-71
2021/04/25 07:49:21;;;;;;;17.98;15.73;;;;;;;9.51;53.69;95702.44;5064605;28;20433;-65
2021/04/25 07:51:47;;;;;;;26.60;15.27;;;;;;;9.72;51.99;95687.03;5048561;28;20124;-73
2021/04/25 07:54:12;;;;;;;19.02;13.68;;;;;;;9.56;53.18;95703.16;5049046;28;20044;-68
2021/04/25 07:56:38;;;;;;;16.08;14.07;;;;;;;9.87;52.53;95708.13;5064633;28;20104;-66
2021/04/25 07:59:03;;;;;;;15.73;13.52;;;;;;;10.11;51.63;95706.22;5066128;28;20028;-69
2021/04/25 08:01:29;;;;;;;17.83;14.13;;;;;;;9.82;51.10;95645.19;5047447;28;20502;-66
2021/04/25 08:03:59;;;;;;;16.70;13.38;;;;;;;10.89;49.96;95699.47;5048921;28;20037;-69
2021/04/25 08:06:25;;;;;;;16.38;13.93;;;;;;;10.65;50.42;95680.22;5049197;28;20104;-70
2021/04/25 08:08:54;;;;;;;16.60;13.75;;;;;;;10.22;50.91;95692.78;5048707;28;20060;-68
2021/04/25 08:11:19;;;;;;;18.83;13.90;;;;;;;10.61;49.56;95676.53;5050823;28;20147;-80
2021/04/25 08:13:46;;;;;;;16.27;13.25;;;;;;;11.22;48.79;95707.47;5049050;28;20036;-70
2021/04/25 08:16:11;;;;;;;17.35;15.07;;;;;;;11.02;48.26;95683.84;5049109;28;20036;-70
2021/04/25 08:18:37;;;;;;;19.58;13.68;;;;;;;11.10;48.19;95688.47;5047413;28;20406;-77
2021/04/25 08:21:02;;;;;;;15.20;13.63;;;;;;;10.65;49.02;95698.81;5048840;28;20029;-64
2021/04/25 08:23:27;;;;;;;18.52;15.38;;;;;;;11.06;48.99;95690.16;5067808;28;20025;-79
2021/04/25 08:25:53;;;;;;;15.40;14.00;;;;;;;10.88;48.34;95697.13;5069885;28;20028;-78
2021/04/25 08:28:18;;;;;;;14.88;13.13;;;;;;;10.59;47.91;95702.63;5052275;28;20041;-69
2021/04/25 08:30:44;;;;;;;14.95;13.43;;;;;;;11.07;47.46;95679.22;5067479;28;20072;-66
2021/04/25 08:33:09;;;;;;;16.17;12.80;;;;;;;10.91;47.85;95694.66;5052213;28;20390;-69
2021/04/25 08:35:35;;;;;;;17.52;13.07;;;;;;;11.01;47.56;95677.75;5052090;28;20425;-68
2021/04/25 08:38:00;;;;;;;16.38;13.70;;;;;;;11.38;48.28;95684.00;5053885;28;20040;-74
2021/04/25 08:40:26;;;;;;;19.27;12.75;;;;;;;11.61;46.18;95688.31;5067327;28;20041;-70
2021/04/25 08:42:51;;;;;;;13.90;12.38;;;;;;;11.22;47.26;95706.66;5050432;28;20099;-68
2021/04/25 08:45:17;;;;;;;14.18;12.68;;;;;;;11.75;45.99;95690.19;5051986;28;20569;-66
2021/04/25 08:47:50;;;;;;;17.83;13.27;;;;;;;11.43;46.76;95702.53;5051817;28;20514;-68
2021/04/25 08:50:15;;;;;;;15.45;13.85;;;;;;;11.29;48.10;95694.53;5053394;28;20495;-69
2021/04/25 08:52:43;;;;;;;18.35;13.20;;;;;;;11.32;48.62;95693.16;5067015;28;20132;-68
2021/04/25 08:55:09;;;;;;;17.10;13.10;;;;;;;11.18;46.71;95680.63;5051880;28;20154;-68
2021/04/25 08:57:34;;;;;;;17.55;13.30;;;;;;;11.58;46.82;95674.81;5051359;28;20066;-68
2021/04/25 09:00:00;;;;;;;15.30;12.43;;;;;;;11.24;47.78;95691.97;5051656;28;20037;-70
2021/04/25 09:02:28;;;;;;;17.38;13.80;;;;;;;11.27;47.16;95655.97;5050226;28;20059;-68
2021/04/25 09:04:57;;;;;;;16.40;14.30;;;;;;;11.80;46.37;95672.22;5053610;28;20017;-72
2021/04/25 09:07:24;;;;;;;17.27;13.00;;;;;;;11.68;46.10;95671.97;5051266;28;20029;-67
2021/04/25 09:09:51;;;;;;;16.30;13.02;;;;;;;12.31;44.48;95665.81;5051630;28;20070;-73
2021/04/25 09:12:40;;;;;;;21.80;14.02;;;;;;;12.04;46.27;95680.03;5051263;28;20040;-73
2021/04/25 09:15:11;;;;;;;17.48;12.93;;;;;;;11.59;46.31;95693.16;5051531;28;20559;-65
2021/04/25 09:17:49;;;;;;;17.80;12.77;;;;;;;12.26;45.47;95689.16;5051183;28;20032;-67
2021/04/25 09:20:15;;;;;;;15.60;13.02;;;;;;;12.75;43.84;95680.28;5052573;28;20115;-66
2021/04/25 09:22:51;;;;;;;16.02;13.27;;;;;;;12.35;44.52;95676.69;5066524;28;20116;-68
2021/04/25 09:25:18;;;;;;;19.23;14.23;;;;;;;12.64;44.26;95665.59;5051330;28;20037;-72
2021/04/25 09:27:47;;;;;;;16.60;14.15;;;;;;;12.66;44.10;95668.75;5066416;28;20483;-76
2021/04/25 09:30:19;;;;;;;18.38;15.15;;;;;;;13.25;43.52;95667.53;5051381;28;20067;-74
2021/04/25 09:32:45;;;;;;;16.38;13.45;;;;;;;13.09;43.67;95663.66;5048407;28;20226;-71
2021/04/25 09:35:18;;;;;;;14.27;12.60;;;;;;;12.98;43.81;95662.34;5053306;28;20099;-73
2021/04/25 09:37:46;;;;;;;15.38;13.20;;;;;;;12.80;42.72;95661.47;5051134;28;20501;-70
2021/04/25 09:40:16;;;;;;;14.85;13.32;;;;;;;12.68;44.01;95677.25;5050865;28;20029;-70
2021/04/25 09:42:58;;;;;;;19.33;14.15;;;;;;;12.85;44.08;95666.69;5050835;28;20140;-70
2021/04/25 09:45:25;;;;;;;15.55;12.60;;;;;;;12.76;44.31;95673.84;5051037;28;20099;-70
2021/04/25 09:47:50;;;;;;;16.55;13.57;;;;;;;12.40;44.91;95657.91;5050269;28;20094;-71
2021/04/25 09:50:21;;;;;;;19.55;13.07;;;;;;;12.25;45.15;95667.03;5051907;28;20471;-69
2021/04/25 09:52:50;;;;;;;15.57;12.90;;;;;;;12.81;44.26;95665.72;5049989;28;20029;-70
2021/04/25 09:55:25;;;;;;;13.90;12.55;;;;;;;13.16;43.13;95663.25;5050371;28;20470;-67
2021/04/25 09:57:56;;;;;;;17.30;13.65;;;;;;;13.33;43.00;95666.03;5050167;28;20494;-69
2021/04/25 10:00:23;;;;;;;15.43;12.57;;;;;;;13.52;42.60;95650.53;5050666;28;20037;-69
2021/04/25 10:03:07;;;;;;;17.63;12.70;;;;;;;13.06;42.92;95664.31;5050359;28;20397;-69
2021/04/25 10:05:33;;;;;;;17.50;12.43;;;;;;;13.48;42.09;95654.13;5050372;28;20021;-67
2021/04/25 10:07:59;;;;;;;15.18;12.15;;;;;;;13.14;43.24;95660.88;5052072;28;20104;-68
2021/04/25 10:10:26;;;;;;;13.68;12.18;;;;;;;13.01;43.38;95646.53;5050379;28;20634;-71
2021/04/25 10:12:51;;;;;;;15.25;12.80;;;;;;;13.48;42.48;95651.47;5048835;28;20116;-67
2021/04/25 10:15:18;;;;;;;16.00;12.43;;;;;;;12.85;42.87;95642.66;5050324;28;20116;-67
2021/04/25 10:17:46;;;;;;;15.02;11.43;;;;;;;13.22;42.87;95649.47;5049883;28;20109;-73
2021/04/25 10:20:14;;;;;;;13.77;12.38;;;;;;;13.79;41.33;95662.88;5066976;28;20017;-74
2021/04/25 10:22:41;;;;;;;12.50;11.20;;;;;;;13.24;42.42;95657.19;5050053;28;20041;-73
2021/04/25 10:25:13;;;;;;;14.30;12.43;;;;;;;13.93;40.88;95660.06;5049760;28;20041;-76
2021/04/25 10:27:43;;;;;;;16.23;11.30;;;;;;;13.56;40.77;95652.56;5049856;28;20048;-71
2021/04/25 10:30:12;;;;;;;12.90;11.10;;;;;;;13.26;41.06;95665.69;5050036;28;20083;-73
2021/04/25 10:32:41;;;;;;;12.13;10.65;;;;;;;14.00;40.44;95643.56;5049590;28;20119;-74
2021/04/25 10:35:18;;;;;;;15.82;10.88;;;;;;;13.36;40.92;95661.94;5051784;28;20029;-72
2021/04/25 10:37:45;;;;;;;13.82;9.95;;;;;;;12.55;42.99;95670.88;5049634;28;20123;-72
2021/04/25 10:40:21;;;;;;;19.60;10.63;;;;;;;12.78;41.68;95670.88;5064935;28;20726;-70
2021/04/25 10:43:01;;;;;;;13.05;9.90;;;;;;;13.00;42.43;95666.31;5049559;28;20045;-71
2021/04/25 10:45:34;;;;;;;14.13;10.85;;;;;;;13.65;40.79;95661.41;5065143;28;20068;-72
2021/04/25 10:48:17;;;;;;;12.93;9.93;;;;;;;13.09;41.86;95654.88;5049620;28;20112;-71
2021/04/25 10:50:44;;;;;;;10.80;9.40;;;;;;;13.55;40.97;95633.09;5049229;28;20039;-72
2021/04/25 10:53:22;;;;;;;13.77;10.57;;;;;;;14.12;40.69;95645.59;5066481;28;20432;-70
2021/04/25 10:55:50;;;;;;;16.30;10.75;;;;;;;14.56;39.27;95652.56;5049664;28;20390;-68
2021/04/25 10:58:17;;;;;;;12.77;10.38;;;;;;;14.48;39.14;95646.13;5048315;28;20052;-63
2021/04/25 11:00:44;;;;;;;14.63;10.65;;;;;;;14.85;38.27;95633.16;5049708;28;20029;-66
2021/04/25 11:03:10;;;;;;;12.20;10.88;;;;;;;14.72;38.67;95642.94;5049136;28;20102;-66
2021/04/25 11:05:36;;;;;;;14.30;10.48;;;;;;;13.64;41.55;95636.56;5049489;28;20467;-66
2021/04/25 11:08:06;;;;;;;16.48;9.63;;;;;;;13.40;42.35;95650.31;5051192;28;20598;-65
2021/04/25 11:10:51;;;;;;;13.82;10.95;;;;;;;13.44;41.98;95642.47;5049397;28;20037;-65
2021/04/25 11:13:35;;;;;;;13.88;10.93;;;;;;;13.96;40.72;95632.69;5049173;28;20037;-64
2021/04/25 11:16:05;;;;;;;16.60;11.15;;;;;;;14.46;40.58;95639.47;5049382;28;20064;-66
2021/04/25 11:18:59;;;;;;;14.18;10.13;;;;;;;14.03;40.90;95646.41;5049057;28;20147;-65
2021/04/25 11:21:38;;;;;;;12.40;10.18;;;;;;;14.73;40.05;95638.38;5063796;28;20608;-66
2021/04/25 11:24:03;;;;;;;13.40;10.07;;;;;;;14.87;38.73;95646.25;5064802;28;20045;-64